Sbi Phoebe — D5LA7 — position and weather

sailwx.info

Track history (hours):
 
Tides and Currents Weather Stations Pressure Air Temp Water Temp Dewpoint Dewpoint Depression Visibility Wind Speed Wind Dir Waves Ship Positions

Sbi Phoebe

Last reported at 2018-Apr-23 03:30 UTC. Time now 2018-Apr-23 03:58 UTC.
Position N 55°00' E 011°01'.

Length 200 m; draft 8.5 m.

Type: Cargo ship. MMSI: 636017455.

Date/timePositionNaut miles runAvg speedWind from/ knotsBaromVisibWave heightAir tempDewpointWater temp
2018-Apr-23 03:30N 55°00' E 011°01'815.2
2018-Apr-23 03:00N 54°54' E 010°54'815.3
2018-Apr-23 02:30N 54°46' E 010°52'5 9.7
2018-Apr-23 02:00N 54°42' E 010°55'612.9
2018-Apr-23 01:30N 54°39' E 011°05'713.4
2018-Apr-23 01:00N 54°35' E 011°15'713.2
2018-Apr-23 00:30N 54°33' E 011°25'612.8
2018-Apr-23 00:00N 54°30' E 011°35'612.8
2018-Apr-22 23:30N 54°28' E 011°45'612.6
2018-Apr-22 23:00N 54°26' E 011°56'713.1
2018-Apr-22 22:30N 54°27' E 012°07'712.3
2018-Apr-22 21:56N 54°33' E 012°13'512.7
2018-Apr-22 21:30N 54°38' E 012°17'713.1
2018-Apr-22 21:00N 54°41' E 012°26'713.3
2018-Apr-22 20:30N 54°45' E 012°36'713.3
2018-Apr-22 20:00N 54°48' E 012°46'713.4
2018-Apr-22 19:30N 54°50' E 012°57'1813.5
2018-Apr-22 18:11N 54°56' E 013°26'313.3
2018-Apr-22 17:57N 54°58' E 013°32'613.0
2018-Apr-22 17:30N 55°00' E 013°41'713.1
2018-Apr-22 17:00N 55°03' E 013°51'713.1
2018-Apr-22 16:30N 55°04' E 014°02'713.1
2018-Apr-22 16:00N 55°09' E 014°10'713.1
2018-Apr-22 15:29N 55°14' E 014°18'612.9
2018-Apr-22 15:00N 55°19' E 014°25'713.1
2018-Apr-22 14:30N 55°24' E 014°32'612.9
2018-Apr-22 14:00N 55°28' E 014°41'713.4
2018-Apr-22 13:30N 55°31' E 014°51'713.7
2018-Apr-22 13:00N 55°34' E 015°02'713.4
2018-Apr-22 12:30N 55°37' E 015°13'713.5
2018-Apr-22 12:00N 55°40' E 015°24'713.5
2018-Apr-22 11:30N 55°41' E 015°35'713.3
2018-Apr-22 11:00N 55°42' E 015°47'713.5
2018-Apr-22 10:30N 55°44' E 015°59'713.3
2018-Apr-22 10:00N 55°46' E 016°10'713.2
2018-Apr-22 09:30N 55°47' E 016°21'713.3
2018-Apr-22 09:00N 55°49' E 016°33'713.1
2018-Apr-22 08:30N 55°50' E 016°44'713.0
2018-Apr-22 08:00N 55°52' E 016°55'713.1
2018-Apr-22 07:30N 55°54' E 017°07'613.0
2018-Apr-22 07:00N 55°56' E 017°18'713.1
2018-Apr-22 06:30N 55°57' E 017°29'713.1
2018-Apr-22 06:00N 55°59' E 017°40'713.1
2018-Apr-22 05:30N 56°03' E 017°50'713.1
2018-Apr-22 05:00N 56°06' E 018°00'713.1
2018-Apr-22 04:29N 56°10' E 018°10'713.1
2018-Apr-22 03:58N 56°14' E 018°21'1113.1
2018-Apr-22 03:09N 56°19' E 018°37'213.1
2018-Apr-22 03:00N 56°20' E 018°40'713.1
2018-Apr-22 02:30N 56°25' E 018°49'  
2018-Apr-16 06:24N 55°22' E 019°28'3 8.3
2018-Apr-16 06:00N 55°19' E 019°26'5 8.3
2018-Apr-16 05:25N 55°15' E 019°23'4 8.4
2018-Apr-16 05:00N 55°12' E 019°21'4 8.4
2018-Apr-16 04:30N 55°08' E 019°18'4 8.5
2018-Apr-16 04:00N 55°04' E 019°15'4 8.5
2018-Apr-16 03:30N 54°60' E 019°13'4 8.5
2018-Apr-16 03:00N 54°56' E 019°10'4 8.3
2018-Apr-16 02:30N 54°52' E 019°07'4 8.4
2018-Apr-16 02:00N 54°48' E 019°04'4 8.6
2018-Apr-16 01:30N 54°44' E 019°01'4 8.5
2018-Apr-16 01:00N 54°40' E 018°58'4 8.3
2018-Apr-16 00:30N 54°37' E 018°55'4 8.1
2018-Apr-16 00:00N 54°33' E 018°51'4 8.3
2018-Apr-15 23:30N 54°30' E 018°46'4 8.2
2018-Apr-15 23:00N 54°27' E 018°41'3 5.8
2018-Apr-15 22:30N 54°25' E 018°40'2 3.3
2018-Apr-15 22:01N 54°23' E 018°40'1 1.2
2018-Apr-15 21:30N 54°23' E 018°40'0 0.2
2018-Apr-15 20:57N 54°23' E 018°40'0 0.0
2018-Apr-15 20:30N 54°23' E 018°40'0 0.0
2018-Apr-15 20:00N 54°23' E 018°40'0 0.0
2018-Apr-15 19:30N 54°23' E 018°40'0 0.0
2018-Apr-15 19:00N 54°23' E 018°40'0 0.0
2018-Apr-15 18:30N 54°23' E 018°40'0 0.0
2018-Apr-15 18:00N 54°23' E 018°40'0 0.0
2018-Apr-15 17:30N 54°23' E 018°40'0 0.0
2018-Apr-15 17:00N 54°23' E 018°40'0 0.0
2018-Apr-15 16:30N 54°23' E 018°40'0 0.0
2018-Apr-15 16:00N 54°23' E 018°40'0 0.0
2018-Apr-15 15:30N 54°23' E 018°40'0 0.0
2018-Apr-15 15:00N 54°23' E 018°40'0 0.0
2018-Apr-15 14:30N 54°23' E 018°40'0 0.0
2018-Apr-15 14:00N 54°23' E 018°40'0 0.0
2018-Apr-15 13:27N 54°23' E 018°40'0 0.0
2018-Apr-15 13:00N 54°23' E 018°40'0 0.0
2018-Apr-15 12:30N 54°23' E 018°40'0 0.0
2018-Apr-15 12:00N 54°23' E 018°40'0 0.0
2018-Apr-15 11:30N 54°23' E 018°40'0 0.0
2018-Apr-15 11:00N 54°23' E 018°40'0 0.0
2018-Apr-15 10:27N 54°23' E 018°40'0 0.0
2018-Apr-15 09:57N 54°23' E 018°40'0 0.0
2018-Apr-15 09:30N 54°23' E 018°40'0 0.0
2018-Apr-15 09:00N 54°23' E 018°40'0 0.0
2018-Apr-15 08:27N 54°23' E 018°40'0 0.0
2018-Apr-15 08:00N 54°23' E 018°40'0 0.0
2018-Apr-15 07:27N 54°23' E 018°40'0 0.0
2018-Apr-15 07:00N 54°23' E 018°40'0 0.0
2018-Apr-15 06:30N 54°23' E 018°40'0 0.0
2018-Apr-15 05:57N 54°23' E 018°40'0 0.0
2018-Apr-15 05:30N 54°23' E 018°40'0 0.0
2018-Apr-15 05:00N 54°23' E 018°40'0 0.0
2018-Apr-15 04:30N 54°23' E 018°40'0 0.0
2018-Apr-15 04:00N 54°23' E 018°40'0 0.0
2018-Apr-15 03:30N 54°23' E 018°40'0 0.0
2018-Apr-15 03:00N 54°23' E 018°40'0 0.0
2018-Apr-15 02:30N 54°23' E 018°40'0 0.0
2018-Apr-15 02:00N 54°23' E 018°40'0 0.0
2018-Apr-15 01:30N 54°23' E 018°40'0 0.0
2018-Apr-15 00:57N 54°23' E 018°40'0 0.0
2018-Apr-15 00:30N 54°23' E 018°40'0 0.0
2018-Apr-15 00:00N 54°23' E 018°40'0 0.0
2018-Apr-14 23:30N 54°23' E 018°40'0 0.0
2018-Apr-14 23:00N 54°23' E 018°40'0 0.0
2018-Apr-14 22:30N 54°23' E 018°40'0 0.0
2018-Apr-14 22:00N 54°23' E 018°40'0 0.0
2018-Apr-14 21:27N 54°23' E 018°40'0 0.0
2018-Apr-14 20:57N 54°23' E 018°40'0 0.0
2018-Apr-14 20:30N 54°23' E 018°40'0 0.0
2018-Apr-14 20:00N 54°23' E 018°40'0 0.0
2018-Apr-14 19:30N 54°23' E 018°40'0 0.0
2018-Apr-14 19:00N 54°23' E 018°40'0 0.0
2018-Apr-14 18:30N 54°23' E 018°40'0 0.0
2018-Apr-14 18:00N 54°23' E 018°40'0 0.0
2018-Apr-14 17:30N 54°23' E 018°40'0 0.0
2018-Apr-14 17:00N 54°23' E 018°40'0 0.0
2018-Apr-14 16:24N 54°23' E 018°40'0 0.0
2018-Apr-14 15:57N 54°23' E 018°40'0 0.0
2018-Apr-14 15:30N 54°23' E 018°40'0 0.0
2018-Apr-14 15:00N 54°23' E 018°40'0 0.0
2018-Apr-14 14:30N 54°23' E 018°40'0 0.0
2018-Apr-14 14:00N 54°23' E 018°40'0 0.0
2018-Apr-14 13:30N 54°23' E 018°40'0 0.0
2018-Apr-14 12:57N 54°23' E 018°40'0 0.0
2018-Apr-14 12:30N 54°23' E 018°40'0 0.0
2018-Apr-14 12:00N 54°23' E 018°40'0 0.0
2018-Apr-14 11:27N 54°23' E 018°40'0 0.0
2018-Apr-14 11:00N 54°23' E 018°40'0 0.0
2018-Apr-14 10:30N 54°23' E 018°40'0 0.0
2018-Apr-14 10:00N 54°23' E 018°40'0 0.0
2018-Apr-14 09:30N 54°23' E 018°40'0 0.0
2018-Apr-14 09:00N 54°23' E 018°40'0 0.0
2018-Apr-14 08:30N 54°23' E 018°40'0 0.0
2018-Apr-14 08:00N 54°23' E 018°40'0 0.0
2018-Apr-14 07:30N 54°23' E 018°40'0 0.0
2018-Apr-14 07:00N 54°23' E 018°40'0 0.0
2018-Apr-14 06:30N 54°23' E 018°40'0 0.0
2018-Apr-14 06:00N 54°23' E 018°40'0 0.0
2018-Apr-14 05:30N 54°23' E 018°40'0 0.0
2018-Apr-14 05:00N 54°23' E 018°40'0 0.0
2018-Apr-14 04:30N 54°23' E 018°40'0 0.0
2018-Apr-14 04:00N 54°23' E 018°40'0 0.0
2018-Apr-14 03:30N 54°23' E 018°40'0 0.0
2018-Apr-14 03:00N 54°23' E 018°40'0 0.0
2018-Apr-14 02:27N 54°23' E 018°40'0 0.0
2018-Apr-14 02:00N 54°23' E 018°40'0 0.0
2018-Apr-14 01:30N 54°23' E 018°40'0 0.0
2018-Apr-14 01:00N 54°23' E 018°40'0 0.0
2018-Apr-14 00:30N 54°23' E 018°40'0 0.0
2018-Apr-14 00:00N 54°23' E 018°40'0 0.0
2018-Apr-13 23:30N 54°23' E 018°40'0 0.0
2018-Apr-13 23:00N 54°23' E 018°40'0 0.0
2018-Apr-13 22:30N 54°23' E 018°40'0 0.0
2018-Apr-13 22:00N 54°23' E 018°40'0 0.0
2018-Apr-13 21:30N 54°23' E 018°40'0 0.0
2018-Apr-13 21:00N 54°23' E 018°40'0 0.0
2018-Apr-13 20:30N 54°23' E 018°40'0 0.0
2018-Apr-13 20:00N 54°23' E 018°40'0 0.0
2018-Apr-13 19:30N 54°23' E 018°40'0 0.0
2018-Apr-13 18:57N 54°23' E 018°40'0 0.0
2018-Apr-13 18:30N 54°23' E 018°40'0 0.0
2018-Apr-13 18:00N 54°23' E 018°40'0 0.0
2018-Apr-13 17:30N 54°23' E 018°40'0 0.0
2018-Apr-13 17:00N 54°23' E 018°40'0 0.0
2018-Apr-13 16:30N 54°23' E 018°40'0 0.0
2018-Apr-13 16:00N 54°23' E 018°40'0 0.0
2018-Apr-13 15:30N 54°23' E 018°40'0 0.0
2018-Apr-13 15:00N 54°23' E 018°40'0 0.0
2018-Apr-13 14:30N 54°23' E 018°40'0 0.0
2018-Apr-13 14:00N 54°23' E 018°40'0 0.0
2018-Apr-13 13:30N 54°23' E 018°40'0 0.0
2018-Apr-13 13:00N 54°23' E 018°40'0 0.0
2018-Apr-13 12:30N 54°23' E 018°40'0 0.0
2018-Apr-13 11:57N 54°23' E 018°40'0 0.0
2018-Apr-13 11:30N 54°23' E 018°40'0 0.0
2018-Apr-13 11:00N 54°23' E 018°40'0 0.0
2018-Apr-13 10:30N 54°23' E 018°40'0 0.0
2018-Apr-13 10:00N 54°23' E 018°40'0 0.0
2018-Apr-13 09:30N 54°23' E 018°40'0 0.0
2018-Apr-13 09:00N 54°23' E 018°40'0 0.0
2018-Apr-13 08:30N 54°23' E 018°40'0 0.0
2018-Apr-13 08:00N 54°23' E 018°40'0 0.0
2018-Apr-13 07:30N 54°23' E 018°40'0 0.0
2018-Apr-13 07:00N 54°23' E 018°40'0 0.0
2018-Apr-13 06:30N 54°23' E 018°40'0 0.0
2018-Apr-13 06:00N 54°23' E 018°40'0 0.0
2018-Apr-13 05:30N 54°23' E 018°40'0 0.0
2018-Apr-13 05:00N 54°23' E 018°40'0 0.0
2018-Apr-13 04:30N 54°23' E 018°40'0 0.0
2018-Apr-13 04:00N 54°23' E 018°40'  
Track history (hours):
 
Tides and Currents Weather Stations Pressure Air Temp Water Temp Dewpoint Dewpoint Depression Visibility Wind Speed Wind Dir Waves Ship Positions

Sbi Phoebe

Last reported at 2018-Apr-23 03:30 UTC. Time now 2018-Apr-23 03:58 UTC.
Position N 55°00' E 011°01'.

Length 200 m; draft 8.5 m.

Type: Cargo ship. MMSI: 636017455.

Date/timePositionNaut miles runAvg speedWind from/ knotsBaromVisibWave heightAir tempDewpointWater temp
2018-Apr-23 03:30N 55°00' E 011°01'815.2
2018-Apr-23 03:00N 54°54' E 010°54'815.3
2018-Apr-23 02:30N 54°46' E 010°52'5 9.7
2018-Apr-23 02:00N 54°42' E 010°55'612.9
2018-Apr-23 01:30N 54°39' E 011°05'713.4
2018-Apr-23 01:00N 54°35' E 011°15'713.2
2018-Apr-23 00:30N 54°33' E 011°25'612.8
2018-Apr-23 00:00N 54°30' E 011°35'612.8
2018-Apr-22 23:30N 54°28' E 011°45'612.6
2018-Apr-22 23:00N 54°26' E 011°56'713.1
2018-Apr-22 22:30N 54°27' E 012°07'712.3
2018-Apr-22 21:56N 54°33' E 012°13'512.7
2018-Apr-22 21:30N 54°38' E 012°17'713.1
2018-Apr-22 21:00N 54°41' E 012°26'713.3
2018-Apr-22 20:30N 54°45' E 012°36'713.3
2018-Apr-22 20:00N 54°48' E 012°46'713.4
2018-Apr-22 19:30N 54°50' E 012°57'1813.5
2018-Apr-22 18:11N 54°56' E 013°26'313.3
2018-Apr-22 17:57N 54°58' E 013°32'613.0
2018-Apr-22 17:30N 55°00' E 013°41'713.1
2018-Apr-22 17:00N 55°03' E 013°51'713.1
2018-Apr-22 16:30N 55°04' E 014°02'713.1
2018-Apr-22 16:00N 55°09' E 014°10'713.1
2018-Apr-22 15:29N 55°14' E 014°18'612.9
2018-Apr-22 15:00N 55°19' E 014°25'713.1
2018-Apr-22 14:30N 55°24' E 014°32'612.9
2018-Apr-22 14:00N 55°28' E 014°41'713.4
2018-Apr-22 13:30N 55°31' E 014°51'713.7
2018-Apr-22 13:00N 55°34' E 015°02'713.4
2018-Apr-22 12:30N 55°37' E 015°13'713.5
2018-Apr-22 12:00N 55°40' E 015°24'713.5
2018-Apr-22 11:30N 55°41' E 015°35'713.3
2018-Apr-22 11:00N 55°42' E 015°47'713.5
2018-Apr-22 10:30N 55°44' E 015°59'713.3
2018-Apr-22 10:00N 55°46' E 016°10'713.2
2018-Apr-22 09:30N 55°47' E 016°21'713.3
2018-Apr-22 09:00N 55°49' E 016°33'713.1
2018-Apr-22 08:30N 55°50' E 016°44'713.0
2018-Apr-22 08:00N 55°52' E 016°55'713.1
2018-Apr-22 07:30N 55°54' E 017°07'613.0
2018-Apr-22 07:00N 55°56' E 017°18'713.1
2018-Apr-22 06:30N 55°57' E 017°29'713.1
2018-Apr-22 06:00N 55°59' E 017°40'713.1
2018-Apr-22 05:30N 56°03' E 017°50'713.1
2018-Apr-22 05:00N 56°06' E 018°00'713.1
2018-Apr-22 04:29N 56°10' E 018°10'713.1
2018-Apr-22 03:58N 56°14' E 018°21'1113.1
2018-Apr-22 03:09N 56°19' E 018°37'213.1
2018-Apr-22 03:00N 56°20' E 018°40'713.1
2018-Apr-22 02:30N 56°25' E 018°49'  
2018-Apr-16 06:24N 55°22' E 019°28'3 8.3
2018-Apr-16 06:00N 55°19' E 019°26'5 8.3
2018-Apr-16 05:25N 55°15' E 019°23'4 8.4
2018-Apr-16 05:00N 55°12' E 019°21'4 8.4
2018-Apr-16 04:30N 55°08' E 019°18'4 8.5
2018-Apr-16 04:00N 55°04' E 019°15'4 8.5
2018-Apr-16 03:30N 54°60' E 019°13'4 8.5
2018-Apr-16 03:00N 54°56' E 019°10'4 8.3
2018-Apr-16 02:30N 54°52' E 019°07'4 8.4
2018-Apr-16 02:00N 54°48' E 019°04'4 8.6
2018-Apr-16 01:30N 54°44' E 019°01'4 8.5
2018-Apr-16 01:00N 54°40' E 018°58'4 8.3
2018-Apr-16 00:30N 54°37' E 018°55'4 8.1
2018-Apr-16 00:00N 54°33' E 018°51'4 8.3
2018-Apr-15 23:30N 54°30' E 018°46'4 8.2
2018-Apr-15 23:00N 54°27' E 018°41'3 5.8
2018-Apr-15 22:30N 54°25' E 018°40'2 3.3
2018-Apr-15 22:01N 54°23' E 018°40'1 1.2
2018-Apr-15 21:30N 54°23' E 018°40'0 0.2
2018-Apr-15 20:57N 54°23' E 018°40'0 0.0
2018-Apr-15 20:30N 54°23' E 018°40'0 0.0
2018-Apr-15 20:00N 54°23' E 018°40'0 0.0
2018-Apr-15 19:30N 54°23' E 018°40'0 0.0
2018-Apr-15 19:00N 54°23' E 018°40'0 0.0
2018-Apr-15 18:30N 54°23' E 018°40'0 0.0
2018-Apr-15 18:00N 54°23' E 018°40'0 0.0
2018-Apr-15 17:30N 54°23' E 018°40'0 0.0
2018-Apr-15 17:00N 54°23' E 018°40'0 0.0
2018-Apr-15 16:30N 54°23' E 018°40'0 0.0
2018-Apr-15 16:00N 54°23' E 018°40'0 0.0
2018-Apr-15 15:30N 54°23' E 018°40'0 0.0
2018-Apr-15 15:00N 54°23' E 018°40'0 0.0
2018-Apr-15 14:30N 54°23' E 018°40'0 0.0
2018-Apr-15 14:00N 54°23' E 018°40'0 0.0
2018-Apr-15 13:27N 54°23' E 018°40'0 0.0
2018-Apr-15 13:00N 54°23' E 018°40'0 0.0
2018-Apr-15 12:30N 54°23' E 018°40'0 0.0
2018-Apr-15 12:00N 54°23' E 018°40'0 0.0
2018-Apr-15 11:30N 54°23' E 018°40'0 0.0
2018-Apr-15 11:00N 54°23' E 018°40'0 0.0
2018-Apr-15 10:27N 54°23' E 018°40'0 0.0
2018-Apr-15 09:57N 54°23' E 018°40'0 0.0
2018-Apr-15 09:30N 54°23' E 018°40'0 0.0
2018-Apr-15 09:00N 54°23' E 018°40'0 0.0
2018-Apr-15 08:27N 54°23' E 018°40'0 0.0
2018-Apr-15 08:00N 54°23' E 018°40'0 0.0
2018-Apr-15 07:27N 54°23' E 018°40'0 0.0
2018-Apr-15 07:00N 54°23' E 018°40'0 0.0
2018-Apr-15 06:30N 54°23' E 018°40'0 0.0
2018-Apr-15 05:57N 54°23' E 018°40'0 0.0
2018-Apr-15 05:30N 54°23' E 018°40'0 0.0
2018-Apr-15 05:00N 54°23' E 018°40'0 0.0
2018-Apr-15 04:30N 54°23' E 018°40'0 0.0
2018-Apr-15 04:00N 54°23' E 018°40'0 0.0
2018-Apr-15 03:30N 54°23' E 018°40'0 0.0
2018-Apr-15 03:00N 54°23' E 018°40'0 0.0
2018-Apr-15 02:30N 54°23' E 018°40'0 0.0
2018-Apr-15 02:00N 54°23' E 018°40'0 0.0
2018-Apr-15 01:30N 54°23' E 018°40'0 0.0
2018-Apr-15 00:57N 54°23' E 018°40'0 0.0
2018-Apr-15 00:30N 54°23' E 018°40'0 0.0
2018-Apr-15 00:00N 54°23' E 018°40'0 0.0
2018-Apr-14 23:30N 54°23' E 018°40'0 0.0
2018-Apr-14 23:00N 54°23' E 018°40'0 0.0
2018-Apr-14 22:30N 54°23' E 018°40'0 0.0
2018-Apr-14 22:00N 54°23' E 018°40'0 0.0
2018-Apr-14 21:27N 54°23' E 018°40'0 0.0
2018-Apr-14 20:57N 54°23' E 018°40'0 0.0
2018-Apr-14 20:30N 54°23' E 018°40'0 0.0
2018-Apr-14 20:00N 54°23' E 018°40'0 0.0
2018-Apr-14 19:30N 54°23' E 018°40'0 0.0
2018-Apr-14 19:00N 54°23' E 018°40'0 0.0
2018-Apr-14 18:30N 54°23' E 018°40'0 0.0
2018-Apr-14 18:00N 54°23' E 018°40'0 0.0
2018-Apr-14 17:30N 54°23' E 018°40'0 0.0
2018-Apr-14 17:00N 54°23' E 018°40'0 0.0
2018-Apr-14 16:24N 54°23' E 018°40'0 0.0
2018-Apr-14 15:57N 54°23' E 018°40'0 0.0
2018-Apr-14 15:30N 54°23' E 018°40'0 0.0
2018-Apr-14 15:00N 54°23' E 018°40'0 0.0
2018-Apr-14 14:30N 54°23' E 018°40'0 0.0
2018-Apr-14 14:00N 54°23' E 018°40'0 0.0
2018-Apr-14 13:30N 54°23' E 018°40'0 0.0
2018-Apr-14 12:57N 54°23' E 018°40'0 0.0
2018-Apr-14 12:30N 54°23' E 018°40'0 0.0
2018-Apr-14 12:00N 54°23' E 018°40'0 0.0
2018-Apr-14 11:27N 54°23' E 018°40'0 0.0
2018-Apr-14 11:00N 54°23' E 018°40'0 0.0
2018-Apr-14 10:30N 54°23' E 018°40'0 0.0
2018-Apr-14 10:00N 54°23' E 018°40'0 0.0
2018-Apr-14 09:30N 54°23' E 018°40'0 0.0
2018-Apr-14 09:00N 54°23' E 018°40'0 0.0
2018-Apr-14 08:30N 54°23' E 018°40'0 0.0
2018-Apr-14 08:00N 54°23' E 018°40'0 0.0
2018-Apr-14 07:30N 54°23' E 018°40'0 0.0
2018-Apr-14 07:00N 54°23' E 018°40'0 0.0
2018-Apr-14 06:30N 54°23' E 018°40'0 0.0
2018-Apr-14 06:00N 54°23' E 018°40'0 0.0
2018-Apr-14 05:30N 54°23' E 018°40'0 0.0
2018-Apr-14 05:00N 54°23' E 018°40'0 0.0
2018-Apr-14 04:30N 54°23' E 018°40'0 0.0
2018-Apr-14 04:00N 54°23' E 018°40'0 0.0
2018-Apr-14 03:30N 54°23' E 018°40'0 0.0
2018-Apr-14 03:00N 54°23' E 018°40'0 0.0
2018-Apr-14 02:27N 54°23' E 018°40'0 0.0
2018-Apr-14 02:00N 54°23' E 018°40'0 0.0
2018-Apr-14 01:30N 54°23' E 018°40'0 0.0
2018-Apr-14 01:00N 54°23' E 018°40'0 0.0
2018-Apr-14 00:30N 54°23' E 018°40'0 0.0
2018-Apr-14 00:00N 54°23' E 018°40'0 0.0
2018-Apr-13 23:30N 54°23' E 018°40'0 0.0
2018-Apr-13 23:00N 54°23' E 018°40'0 0.0
2018-Apr-13 22:30N 54°23' E 018°40'0 0.0
2018-Apr-13 22:00N 54°23' E 018°40'0 0.0
2018-Apr-13 21:30N 54°23' E 018°40'0 0.0
2018-Apr-13 21:00N 54°23' E 018°40'0 0.0
2018-Apr-13 20:30N 54°23' E 018°40'0 0.0
2018-Apr-13 20:00N 54°23' E 018°40'0 0.0
2018-Apr-13 19:30N 54°23' E 018°40'0 0.0
2018-Apr-13 18:57N 54°23' E 018°40'0 0.0
2018-Apr-13 18:30N 54°23' E 018°40'0 0.0
2018-Apr-13 18:00N 54°23' E 018°40'0 0.0
2018-Apr-13 17:30N 54°23' E 018°40'0 0.0
2018-Apr-13 17:00N 54°23' E 018°40'0 0.0
2018-Apr-13 16:30N 54°23' E 018°40'0 0.0
2018-Apr-13 16:00N 54°23' E 018°40'0 0.0
2018-Apr-13 15:30N 54°23' E 018°40'0 0.0
2018-Apr-13 15:00N 54°23' E 018°40'0 0.0
2018-Apr-13 14:30N 54°23' E 018°40'0 0.0
2018-Apr-13 14:00N 54°23' E 018°40'0 0.0
2018-Apr-13 13:30N 54°23' E 018°40'0 0.0
2018-Apr-13 13:00N 54°23' E 018°40'0 0.0
2018-Apr-13 12:30N 54°23' E 018°40'0 0.0
2018-Apr-13 11:57N 54°23' E 018°40'0 0.0
2018-Apr-13 11:30N 54°23' E 018°40'0 0.0
2018-Apr-13 11:00N 54°23' E 018°40'0 0.0
2018-Apr-13 10:30N 54°23' E 018°40'0 0.0
2018-Apr-13 10:00N 54°23' E 018°40'0 0.0
2018-Apr-13 09:30N 54°23' E 018°40'0 0.0
2018-Apr-13 09:00N 54°23' E 018°40'0 0.0
2018-Apr-13 08:30N 54°23' E 018°40'0 0.0
2018-Apr-13 08:00N 54°23' E 018°40'0 0.0
2018-Apr-13 07:30N 54°23' E 018°40'0 0.0
2018-Apr-13 07:00N 54°23' E 018°40'0 0.0
2018-Apr-13 06:30N 54°23' E 018°40'0 0.0
2018-Apr-13 06:00N 54°23' E 018°40'0 0.0
2018-Apr-13 05:30N 54°23' E 018°40'0 0.0
2018-Apr-13 05:00N 54°23' E 018°40'0 0.0
2018-Apr-13 04:30N 54°23' E 018°40'0 0.0
2018-Apr-13 04:00N 54°23' E 018°40'  

Dump ship's entire track history